Aeroporto :
LOGIN :

Iscrizione | Disclaimer

   EN    FR    IT 

 










Sommario :    VFR   VFR Marginale   IFR   IFR Intensivo   IFR Molto Intensivo
Visibilità : 
Base nubi : 
>= 8 km
>= 3000ft
5 / 8 km
1000 / 3000 ft
1500m / 5 km
500 / 1000 ft
800 / 1500m
200 / 500 ft
< 800m
< 200 ft
Simboli :   Temporali  Nebbia  Neve Forte  Precipitazioni Forti  Vento > 20 kt
SIGMETs :   Varie  Temporali  Ghiacco  Turbolenza  Onda orograficha  Ceneri Vulcaniche







- Altitudine del aeroporto : 814 ft
- Codice IATA : TLM


DAON - Zenata - Tlemcen

ULTIMO METAR :
  • 210230Z 00000KT 9999 FEW026 SCT233 24/21 Q1016

METARs OBSOLETI :
  • 210200Z 00000KT 9999 FEW026 SCT233 24/21 Q1016
  • 210130Z 31002KT 9999 FEW026 SCT233 24/21 Q1017
  • 210100Z 31002KT 9999 FEW026 SCT233 24/21 Q1017
  • 210030Z 00000KT 9999 FEW026 SCT233 24/21 Q1017
  • 210000Z 00000KT 9999 FEW026 SCT233 23/21 Q1017

TAF TAF DAON
Valido dal 21 a 00 ore il 22 a 00 ore UTC


202300Z 2100/2124 VRB02KT 9999 SCT026
PROB30
TEMPO 2100/2106 3000 BR SCT016
BECMG 2110/2114 34010KT
PROB40
TEMPO 2110/2118 -TS FEW026CB
Nessun NOTAM noto per questo aeroporto.
1 SIGMET conosciuto per la FIR Alger (DAAA) :
 
Temporali affogati
DAAA SIGMET 7 VALID 202200/202400 DAMM
DAAA ALGER FIR EMBD TS OBS S OF LINE N2250 E00105 - N2153 E00711 TOP FL340 MOV N NC=



MetMap, La meteo Aeronautica in un colpo d'occhio ! - Copyright ORBIFLY Dicembre 2007 - Disclaimer

ORBIFLY MET'MAP TEAM :

Programmazione e sviluppo : Alexandra Zaïnal
Concezione e sviluppo : Baudouin d'Aumeries
Co-Programmazione e sviluppo : Marc-Olivier Méhu
Supporto tecnico e logistico : Manuel Goepfert
Aiuto per la traduzione : Arnaldo La Scala

Contatto : metmap@orbifly.com




FONTI E CREDITI :

   NOAA